Time;durP1;ratioP1;P1;durP2;ratioP2;P2;SDS_P1;SDS_P2;PMS_P1;PMS_P2;Temp;Humidity;BMP_temperature;BMP_pressure;BME280_temperature;BME280_humidity;BME280_pressure;Samples;Min_cycle;Max_cycle;Signal;HPM_P1;HPM_P2
2021/05/15 00:01:34;;;;;;;0.80;0.40;;;;;;;;;;5015115;28;20052;-76
2021/05/15 00:04:02;;;;;;;0.70;0.40;;;;;;;;;;4999032;28;20029;-76
2021/05/15 00:06:27;;;;;;;0.77;0.43;;;;;;;;;;5032228;28;20030;-75
2021/05/15 00:08:52;;;;;;;0.43;0.27;;;;;;;;;;4998874;28;20032;-76
2021/05/15 00:11:18;;;;;;;0.70;0.40;;;;;;;;;;4998761;28;20056;-76
2021/05/15 00:13:46;;;;;;;1.10;0.40;;;;;;;;;;4998904;28;20057;-76
2021/05/15 00:16:12;;;;;;;0.77;0.40;;;;;;;;;;4998972;28;20022;-76
2021/05/15 00:18:39;;;;;;;2.73;0.50;;;;;;;;;;4998609;28;20025;-76
2021/05/15 00:21:04;;;;;;;1.02;0.40;;;;;;;;;;4999623;28;20025;-76
2021/05/15 00:23:29;;;;;;;1.63;0.30;;;;;;;;;;5032866;28;20030;-76
2021/05/15 00:25:55;;;;;;;0.60;0.30;;;;;;;;;;5014993;28;20057;-76
2021/05/15 00:28:20;;;;;;;0.90;0.50;;;;;;;;;;5032567;28;20068;-76
2021/05/15 00:30:47;;;;;;;0.50;0.30;;;;;;;;;;4999203;28;20049;-76
2021/05/15 00:33:12;;;;;;;1.15;0.50;;;;;;;;;;4998544;28;20029;-76
2021/05/15 00:35:37;;;;;;;0.40;0.30;;;;;;;;;;5032656;28;20061;-76
2021/05/15 00:38:03;;;;;;;1.03;0.40;;;;;;;;;;5014884;28;20072;-76
2021/05/15 00:40:28;;;;;;;0.70;0.37;;;;;;;;;;4999290;28;20064;-75
2021/05/15 00:42:53;;;;;;;0.60;0.43;;;;;;;;;;5002415;28;20029;-76
2021/05/15 00:45:19;;;;;;;0.77;0.30;;;;;;;;;;5002507;28;20051;-76
2021/05/15 00:47:44;;;;;;;1.30;0.40;;;;;;;;;;4986281;28;20032;-76
2021/05/15 00:50:10;;;;;;;1.13;0.47;;;;;;;;;;4998588;28;20473;-76
2021/05/15 00:52:36;;;;;;;1.27;0.50;;;;;;;;;;4995499;28;20099;-76
2021/05/15 00:55:09;;;;;;;0.63;0.40;;;;;;;;;;5002327;28;20480;-76
2021/05/15 00:57:35;;;;;;;0.80;0.30;;;;;;;;;;5017961;28;20032;-76
2021/05/15 01:00:00;;;;;;;0.85;0.40;;;;;;;;;;5018514;28;20021;-76
2021/05/15 01:02:26;;;;;;;0.40;0.30;;;;;;;;;;5018114;28;20064;-76
2021/05/15 01:04:51;;;;;;;0.70;0.40;;;;;;;;;;5001208;28;20083;-75
2021/05/15 01:07:17;;;;;;;1.50;0.50;;;;;;;;;;5001534;28;20586;-76
2021/05/15 01:09:42;;;;;;;0.80;0.47;;;;;;;;;;4967613;28;20504;-76
2021/05/15 01:12:08;;;;;;;0.60;0.33;;;;;;;;;;5000996;28;20087;-76
2021/05/15 01:14:34;;;;;;;0.68;0.40;;;;;;;;;;5001852;28;20025;-76
2021/05/15 01:17:00;;;;;;;0.63;0.40;;;;;;;;;;4980637;28;20034;-76
2021/05/15 01:19:25;;;;;;;1.20;0.40;;;;;;;;;;5016894;28;20392;-76
2021/05/15 01:21:50;;;;;;;0.80;0.33;;;;;;;;;;5017775;28;20460;-76
2021/05/15 01:24:16;;;;;;;0.70;0.33;;;;;;;;;;5002043;28;20504;-76
2021/05/15 01:26:41;;;;;;;0.70;0.40;;;;;;;;;;5017738;28;20064;-76
2021/05/15 01:29:06;;;;;;;1.13;0.30;;;;;;;;;;5018152;28;20059;-76
2021/05/15 01:31:32;;;;;;;1.17;0.40;;;;;;;;;;5001211;28;20029;-76
2021/05/15 01:33:58;;;;;;;0.68;0.30;;;;;;;;;;5001723;28;20063;-76
2021/05/15 01:36:24;;;;;;;0.80;0.47;;;;;;;;;;5001258;28;20495;-76
2021/05/15 01:38:49;;;;;;;1.50;0.40;;;;;;;;;;5017626;28;20520;-76
2021/05/15 01:41:15;;;;;;;0.50;0.30;;;;;;;;;;5035386;28;20056;-76
2021/05/15 01:43:41;;;;;;;0.80;0.30;;;;;;;;;;5017781;28;20025;-76
2021/05/15 01:46:06;;;;;;;1.07;0.40;;;;;;;;;;5001246;28;20400;-76
2021/05/15 01:48:31;;;;;;;0.47;0.27;;;;;;;;;;5001222;28;20480;-76
2021/05/15 01:51:11;;;;;;;0.50;0.30;;;;;;;;;;5000933;28;20036;-76
2021/05/15 01:53:45;;;;;;;0.50;0.30;;;;;;;;;;5001145;28;20036;-76
2021/05/15 01:56:11;;;;;;;0.65;0.32;;;;;;;;;;5001759;28;20025;-76
2021/05/15 01:58:37;;;;;;;0.60;0.20;;;;;;;;;;5017151;28;20358;-76
2021/05/15 02:01:02;;;;;;;0.70;0.30;;;;;;;;;;4998852;28;20040;-76
2021/05/15 02:03:28;;;;;;;0.93;0.40;;;;;;;;;;5000896;28;20037;-76
2021/05/15 02:05:53;;;;;;;0.50;0.30;;;;;;;;;;5001527;28;20056;-76
2021/05/15 02:08:19;;;;;;;0.70;0.40;;;;;;;;;;5001091;28;20365;-76
2021/05/15 02:10:45;;;;;;;0.77;0.40;;;;;;;;;;5000593;28;20025;-76
2021/05/15 02:13:10;;;;;;;1.13;0.40;;;;;;;;;;4984629;28;20176;-76
2021/05/15 02:15:36;;;;;;;0.70;0.40;;;;;;;;;;5017431;28;20025;-76
2021/05/15 02:18:03;;;;;;;0.50;0.27;;;;;;;;;;5000838;28;20029;-76
2021/05/15 02:20:28;;;;;;;0.90;0.40;;;;;;;;;;5000345;28;20029;-76
2021/05/15 02:22:54;;;;;;;0.70;0.30;;;;;;;;;;5017008;28;20538;-76
2021/05/15 02:25:19;;;;;;;0.87;0.37;;;;;;;;;;5016966;28;20052;-76
2021/05/15 02:27:45;;;;;;;1.40;0.40;;;;;;;;;;5016654;28;20189;-76
2021/05/15 02:30:10;;;;;;;0.70;0.33;;;;;;;;;;5000353;28;20108;-76
2021/05/15 02:32:36;;;;;;;0.33;0.20;;;;;;;;;;5016566;28;20075;-76
2021/05/15 02:35:01;;;;;;;1.00;0.47;;;;;;;;;;5016999;28;20096;-76
2021/05/15 02:37:26;;;;;;;0.63;0.30;;;;;;;;;;5000376;28;20483;-76
2021/05/15 02:39:52;;;;;;;1.07;0.43;;;;;;;;;;4984328;28;20056;-76
2021/05/15 02:42:17;;;;;;;1.07;0.40;;;;;;;;;;4983770;28;20158;-76
2021/05/15 02:44:42;;;;;;;0.90;0.40;;;;;;;;;;5016629;28;20069;-76
2021/05/15 02:47:08;;;;;;;0.53;0.40;;;;;;;;;;5016587;28;20061;-76
2021/05/15 02:49:33;;;;;;;0.90;0.40;;;;;;;;;;5016291;28;20053;-76
2021/05/15 02:51:58;;;;;;;1.10;0.40;;;;;;;;;;4967272;28;20030;-76
2021/05/15 02:54:24;;;;;;;0.90;0.30;;;;;;;;;;5016074;28;20056;-76
2021/05/15 02:56:49;;;;;;;0.90;0.40;;;;;;;;;;5016484;28;20061;-76
2021/05/15 02:59:14;;;;;;;0.60;0.33;;;;;;;;;;5016106;28;20051;-76
2021/05/15 03:01:40;;;;;;;0.73;0.30;;;;;;;;;;5016163;28;20053;-76
2021/05/15 03:04:05;;;;;;;0.50;0.30;;;;;;;;;;5015690;28;20103;-76
2021/05/15 03:06:30;;;;;;;1.10;0.40;;;;;;;;;;4983662;28;20514;-76
2021/05/15 03:08:56;;;;;;;1.13;0.33;;;;;;;;;;5016166;28;20519;-76
2021/05/15 03:11:21;;;;;;;0.43;0.30;;;;;;;;;;4999616;28;20449;-76
2021/05/15 03:13:46;;;;;;;0.53;0.23;;;;;;;;;;4999685;28;20463;-76
2021/05/15 03:16:12;;;;;;;0.40;0.30;;;;;;;;;;4999710;28;20148;-76
2021/05/15 03:18:37;;;;;;;0.53;0.27;;;;;;;;;;4983100;28;20029;-76
2021/05/15 03:21:02;;;;;;;0.83;0.47;;;;;;;;;;5033774;28;20069;-76
2021/05/15 03:23:28;;;;;;;1.30;0.40;;;;;;;;;;4983159;28;20176;-76
2021/05/15 03:25:53;;;;;;;0.60;0.40;;;;;;;;;;5015917;28;20056;-76
2021/05/15 03:28:19;;;;;;;1.20;0.40;;;;;;;;;;5033408;28;20114;-76
2021/05/15 03:30:44;;;;;;;0.73;0.27;;;;;;;;;;5015946;28;20387;-76
2021/05/15 03:33:10;;;;;;;0.50;0.30;;;;;;;;;;5015315;28;20027;-76
2021/05/15 03:35:35;;;;;;;0.30;0.20;;;;;;;;;;5015802;28;20438;-76
2021/05/15 03:38:00;;;;;;;1.23;0.50;;;;;;;;;;5015609;28;20150;-76
2021/05/15 03:40:26;;;;;;;0.40;0.27;;;;;;;;;;4983055;28;20049;-76
2021/05/15 03:42:54;;;;;;;1.00;0.47;;;;;;;;;;5015608;28;20100;-76
2021/05/15 03:45:19;;;;;;;0.88;0.40;;;;;;;;;;4999906;28;20427;-76
2021/05/15 03:47:44;;;;;;;1.63;0.40;;;;;;;;;;4999391;28;20104;-76
2021/05/15 03:50:10;;;;;;;0.70;0.40;;;;;;;;;;4999319;28;20413;-76
2021/05/15 03:52:35;;;;;;;0.87;0.30;;;;;;;;;;4998764;28;20400;-76
2021/05/15 03:55:01;;;;;;;1.03;0.40;;;;;;;;;;5014966;28;20061;-76
2021/05/15 03:57:26;;;;;;;1.10;0.40;;;;;;;;;;4982967;28;20037;-76
2021/05/15 03:59:52;;;;;;;1.23;0.40;;;;;;;;;;4983000;28;20606;-76
2021/05/15 04:02:22;;;;;;;0.80;0.30;;;;;;;;;;4998910;28;20064;-76
2021/05/15 04:04:48;;;;;;;1.33;0.40;;;;;;;;;;5032918;28;20029;-76
2021/05/15 04:07:14;;;;;;;0.97;0.50;;;;;;;;;;5015314;28;20033;-76
2021/05/15 04:09:39;;;;;;;0.90;0.40;;;;;;;;;;4995599;28;20692;-76
2021/05/15 04:12:05;;;;;;;1.23;0.50;;;;;;;;;;5004653;28;20061;-76
2021/05/15 04:14:40;;;;;;;1.50;0.40;;;;;;;;;;4995415;28;20096;-76
2021/05/15 04:19:30;;;;;;;1.17;0.50;;;;;;;;;;5003129;28;20501;-76
2021/05/15 04:21:56;;;;;;;0.53;0.30;;;;;;;;;;5002827;28;20061;-76
2021/05/15 04:24:24;;;;;;;0.60;0.30;;;;;;;;;;4982767;28;20017;-76
2021/05/15 04:26:54;;;;;;;0.95;0.40;;;;;;;;;;4984267;28;20022;-76
2021/05/15 04:29:23;;;;;;;0.43;0.30;;;;;;;;;;4983778;28;20480;-76
2021/05/15 04:31:49;;;;;;;0.73;0.30;;;;;;;;;;5010315;28;20080;-76
2021/05/15 04:34:15;;;;;;;0.97;0.40;;;;;;;;;;4972736;28;20021;-76
2021/05/15 04:36:40;;;;;;;0.77;0.40;;;;;;;;;;4997997;28;20034;-76
2021/05/15 04:39:06;;;;;;;1.00;0.40;;;;;;;;;;5002387;28;20029;-76
2021/05/15 04:41:31;;;;;;;1.23;0.40;;;;;;;;;;4982446;28;20052;-76
2021/05/15 04:43:56;;;;;;;1.03;0.40;;;;;;;;;;4987913;28;20065;-76
2021/05/15 04:46:22;;;;;;;1.10;0.40;;;;;;;;;;5019091;28;20057;-76
2021/05/15 04:48:47;;;;;;;1.87;0.53;;;;;;;;;;5018884;28;20053;-76
2021/05/15 04:51:12;;;;;;;1.33;0.57;;;;;;;;;;5001999;28;20056;-76
2021/05/15 04:53:38;;;;;;;0.80;0.40;;;;;;;;;;5060067;22;20045;-81
2021/05/15 04:56:04;;;;;;;1.00;0.40;;;;;;;;;;5013526;28;20022;-81
2021/05/15 04:58:29;;;;;;;0.90;0.50;;;;;;;;;;5024263;28;20036;-81
2021/05/15 05:00:55;;;;;;;0.57;0.40;;;;;;;;;;5012924;28;20506;-81
2021/05/15 05:03:20;;;;;;;1.23;0.40;;;;;;;;;;4981268;28;20025;-81
2021/05/15 05:05:46;;;;;;;0.90;0.40;;;;;;;;;;4990282;28;20021;-81
2021/05/15 05:08:11;;;;;;;1.03;0.40;;;;;;;;;;4987541;28;20496;-80
2021/05/15 05:10:36;;;;;;;1.07;0.50;;;;;;;;;;4988707;28;20487;-80
2021/05/15 05:13:05;;;;;;;1.37;0.50;;;;;;;;;;4989687;28;20061;-80
2021/05/15 05:15:30;;;;;;;1.10;0.40;;;;;;;;;;4989139;28;20030;-80
2021/05/15 05:17:56;;;;;;;1.03;0.47;;;;;;;;;;5004503;28;20468;-80
2021/05/15 05:20:21;;;;;;;0.87;0.30;;;;;;;;;;5005762;28;20057;-80
2021/05/15 05:22:46;;;;;;;1.00;0.50;;;;;;;;;;4988688;28;20026;-80
2021/05/15 05:25:13;;;;;;;1.53;0.40;;;;;;;;;;5005715;28;20424;-80
2021/05/15 05:27:45;;;;;;;0.95;0.40;;;;;;;;;;5004418;28;20041;-80
2021/05/15 05:30:11;;;;;;;1.13;0.45;;;;;;;;;;4989821;28;20061;-80
2021/05/15 05:32:36;;;;;;;1.17;0.40;;;;;;;;;;4988617;28;20104;-80
2021/05/15 05:35:02;;;;;;;0.93;0.40;;;;;;;;;;4989058;28;20424;-82
2021/05/15 05:37:27;;;;;;;0.80;0.30;;;;;;;;;;4992275;28;20392;-80
2021/05/15 05:39:54;;;;;;;0.90;0.40;;;;;;;;;;5025564;28;20056;-80
2021/05/15 05:42:20;;;;;;;1.00;0.38;;;;;;;;;;4992578;28;20025;-80
2021/05/15 05:44:45;;;;;;;0.80;0.30;;;;;;;;;;5005207;28;20059;-80
2021/05/15 05:47:11;;;;;;;0.87;0.40;;;;;;;;;;5004571;28;20564;-80
2021/05/15 05:49:37;;;;;;;0.63;0.32;;;;;;;;;;4993194;28;20108;-80
2021/05/15 05:52:02;;;;;;;1.03;0.40;;;;;;;;;;4993198;28;20048;-80
2021/05/15 05:54:28;;;;;;;0.93;0.40;;;;;;;;;;5006182;28;20029;-81
2021/05/15 05:56:53;;;;;;;0.80;0.40;;;;;;;;;;4988073;28;20041;-80
2021/05/15 05:59:18;;;;;;;1.50;0.40;;;;;;;;;;5024036;28;20087;-81
2021/05/15 06:01:44;;;;;;;1.17;0.40;;;;;;;;;;4992625;28;20586;-80
2021/05/15 06:04:09;;;;;;;0.90;0.50;;;;;;;;;;5007759;28;20092;-80
2021/05/15 06:06:35;;;;;;;0.80;0.50;;;;;;;;;;4977151;28;20026;-80
2021/05/15 06:09:01;;;;;;;0.65;0.30;;;;;;;;;;4988815;28;20476;-80
2021/05/15 06:11:26;;;;;;;0.93;0.50;;;;;;;;;;5005308;28;20137;-80
2021/05/15 06:13:51;;;;;;;0.90;0.33;;;;;;;;;;5024802;28;20433;-81
2021/05/15 06:16:17;;;;;;;1.03;0.50;;;;;;;;;;4989037;28;20033;-80
2021/05/15 06:18:42;;;;;;;1.57;0.50;;;;;;;;;;4971665;28;20068;-81
2021/05/15 06:21:07;;;;;;;1.20;0.30;;;;;;;;;;4972262;28;20121;-80
2021/05/15 06:23:33;;;;;;;1.03;0.40;;;;;;;;;;4994354;28;20033;-80
2021/05/15 06:26:00;;;;;;;0.40;0.20;;;;;;;;;;4988496;28;20018;-81
2021/05/15 06:28:25;;;;;;;1.30;0.52;;;;;;;;;;4989750;28;20039;-80
2021/05/15 06:30:50;;;;;;;0.97;0.40;;;;;;;;;;4971623;28;20534;-80
2021/05/15 06:33:16;;;;;;;0.77;0.40;;;;;;;;;;4972650;28;20440;-80
2021/05/15 06:35:41;;;;;;;0.70;0.50;;;;;;;;;;5002429;28;20116;-77
2021/05/15 06:38:07;;;;;;;0.97;0.50;;;;;;;;;;5001436;28;20054;-81
2021/05/15 06:40:32;;;;;;;1.17;0.50;;;;;;;;;;4970168;28;20032;-82
2021/05/15 06:42:58;;;;;;;1.23;0.43;;;;;;;;;;4987974;28;20492;-81
2021/05/15 06:45:23;;;;;;;0.80;0.27;;;;;;;;;;4985529;28;20284;-80
2021/05/15 06:47:49;;;;;;;2.10;0.40;;;;;;;;;;4985523;28;20026;-81
2021/05/15 06:50:14;;;;;;;1.40;0.50;;;;;;;;;;4969763;28;20075;-81
2021/05/15 06:52:40;;;;;;;1.03;0.43;;;;;;;;;;4978770;28;20025;-80
2021/05/15 06:55:06;;;;;;;0.87;0.40;;;;;;;;;;5003699;28;20025;-81
2021/05/15 06:57:31;;;;;;;1.08;0.43;;;;;;;;;;4988180;28;20032;-80
2021/05/15 06:59:56;;;;;;;3.30;0.50;;;;;;;;;;5004055;28;20033;-79
2021/05/15 07:02:22;;;;;;;1.17;0.40;;;;;;;;;;5020366;28;20052;-80
2021/05/15 07:04:47;;;;;;;0.93;0.40;;;;;;;;;;4982392;28;20116;-80
2021/05/15 07:07:12;;;;;;;1.17;0.40;;;;;;;;;;4997294;28;20088;-80
2021/05/15 07:09:38;;;;;;;1.17;0.50;;;;;;;;;;4984611;28;20112;-80
2021/05/15 07:12:03;;;;;;;1.03;0.43;;;;;;;;;;4984414;28;20030;-80
2021/05/15 07:14:29;;;;;;;1.63;0.67;;;;;;;;;;4993737;28;20035;-81
2021/05/15 07:16:54;;;;;;;0.93;0.37;;;;;;;;;;5005042;28;20029;-80
2021/05/15 07:19:19;;;;;;;2.33;0.50;;;;;;;;;;4998194;28;20029;-81
2021/05/15 07:21:45;;;;;;;0.40;0.30;;;;;;;;;;4991174;28;20040;-80
2021/05/15 07:24:10;;;;;;;1.23;0.47;;;;;;;;;;4986194;28;20035;-80
2021/05/15 07:26:36;;;;;;;1.63;0.40;;;;;;;;;;4982690;28;20025;-80
2021/05/15 07:29:01;;;;;;;0.70;0.40;;;;;;;;;;4983530;28;20045;-79
2021/05/15 07:31:26;;;;;;;1.43;0.50;;;;;;;;;;4999150;28;20045;-78
2021/05/15 07:33:52;;;;;;;1.37;0.50;;;;;;;;;;4997420;28;20061;-77
2021/05/15 07:36:17;;;;;;;1.17;0.50;;;;;;;;;;4995666;28;20108;-79
2021/05/15 07:38:43;;;;;;;1.87;0.60;;;;;;;;;;4981787;28;20117;-80
2021/05/15 07:41:08;;;;;;;0.60;0.37;;;;;;;;;;4982400;28;20393;-79
2021/05/15 07:43:35;;;;;;;0.97;0.40;;;;;;;;;;5000664;28;20025;-79
2021/05/15 07:46:00;;;;;;;1.27;0.50;;;;;;;;;;4988516;28;20029;-81
2021/05/15 07:48:29;;;;;;;2.53;0.50;;;;;;;;;;5000758;28;20064;-84
2021/05/15 07:51:00;;;;;;;1.10;0.47;;;;;;;;;;4986126;28;20095;-84
2021/05/15 07:53:26;;;;;;;1.42;0.60;;;;;;;;;;4986657;28;20041;-85
2021/05/15 07:55:51;;;;;;;1.73;0.63;;;;;;;;;;4984603;28;20026;-86
2021/05/15 07:58:17;;;;;;;1.63;0.60;;;;;;;;;;4967729;28;20076;-84
2021/05/15 08:00:42;;;;;;;1.00;0.50;;;;;;;;;;4961360;28;20445;-78
2021/05/15 08:03:07;;;;;;;2.30;0.60;;;;;;;;;;4992488;28;20072;-79
2021/05/15 08:05:33;;;;;;;1.30;0.50;;;;;;;;;;4992443;28;20025;-79
2021/05/15 08:08:00;;;;;;;1.27;0.50;;;;;;;;;;4959959;28;20128;-79
2021/05/15 08:10:25;;;;;;;1.48;0.60;;;;;;;;;;4976151;28;20045;-77
2021/05/15 08:12:50;;;;;;;1.30;0.57;;;;;;;;;;4991992;28;20030;-78
2021/05/15 08:15:16;;;;;;;1.27;0.60;;;;;;;;;;4992281;28;20061;-77
2021/05/15 08:17:41;;;;;;;0.90;0.50;;;;;;;;;;4992075;28;20049;-77
2021/05/15 08:20:07;;;;;;;1.90;0.60;;;;;;;;;;4992147;28;20037;-77
2021/05/15 08:22:33;;;;;;;1.25;0.50;;;;;;;;;;4975628;28;20032;-78
2021/05/15 08:24:58;;;;;;;1.13;0.50;;;;;;;;;;5011195;28;20033;-77
2021/05/15 08:27:24;;;;;;;1.63;0.67;;;;;;;;;;4994006;28;20026;-77
2021/05/15 08:29:50;;;;;;;3.03;0.50;;;;;;;;;;4995704;28;20443;-79
2021/05/15 08:32:15;;;;;;;2.87;0.60;;;;;;;;;;5021083;28;20036;-79
2021/05/15 08:34:40;;;;;;;1.10;0.50;;;;;;;;;;4997892;28;20119;-79
2021/05/15 08:37:06;;;;;;;1.17;0.50;;;;;;;;;;4999245;28;20072;-78
2021/05/15 08:39:31;;;;;;;0.73;0.47;;;;;;;;;;4999129;28;20112;-78
2021/05/15 08:41:56;;;;;;;1.07;0.50;;;;;;;;;;4998490;28;20111;-77
2021/05/15 08:44:24;;;;;;;1.30;0.57;;;;;;;;;;5014794;28;20021;-78
2021/05/15 08:46:49;;;;;;;1.45;0.50;;;;;;;;;;4999500;28;20025;-77
2021/05/15 08:49:15;;;;;;;0.87;0.60;;;;;;;;;;4999498;28;20107;-79
2021/05/15 08:51:41;;;;;;;1.30;0.60;;;;;;;;;;5015364;28;20082;-77
2021/05/15 08:54:07;;;;;;;1.55;0.60;;;;;;;;;;5014802;28;20276;-77
2021/05/15 08:56:32;;;;;;;0.80;0.40;;;;;;;;;;4998515;28;20041;-77
2021/05/15 08:58:58;;;;;;;1.33;0.40;;;;;;;;;;4998767;28;20031;-77
2021/05/15 09:01:23;;;;;;;1.57;0.50;;;;;;;;;;5015461;28;20029;-77
2021/05/15 09:03:49;;;;;;;1.50;0.60;;;;;;;;;;5018594;28;20542;-77
2021/05/15 09:06:14;;;;;;;1.33;0.50;;;;;;;;;;5003068;28;20439;-78
2021/05/15 09:08:39;;;;;;;1.30;0.40;;;;;;;;;;5037103;28;20072;-78
2021/05/15 09:11:05;;;;;;;0.80;0.40;;;;;;;;;;4998828;28;20030;-77
2021/05/15 09:13:30;;;;;;;1.07;0.50;;;;;;;;;;5014201;28;20053;-77
2021/05/15 09:16:05;;;;;;;1.13;0.53;;;;;;;;;;5001979;28;20036;-77
2021/05/15 09:18:40;;;;;;;1.23;0.40;;;;;;;;;;5018108;28;20048;-77
2021/05/15 09:21:12;;;;;;;1.40;0.47;;;;;;;;;;5019694;28;20071;-78
2021/05/15 09:23:38;;;;;;;1.30;0.45;;;;;;;;;;4985675;28;20025;-77
2021/05/15 09:26:14;;;;;;;1.52;0.90;;;;;;;;;;5006141;28;20100;-77
2021/05/15 09:28:39;;;;;;;2.80;1.20;;;;;;;;;;4998721;28;20037;-77
2021/05/15 09:31:32;;;;;;;4.00;1.30;;;;;;;;;;5035311;28;20408;-77
2021/05/15 09:34:05;;;;;;;2.97;1.30;;;;;;;;;;5019154;28;20022;-77
2021/05/15 09:36:32;;;;;;;2.40;1.33;;;;;;;;;;4998076;28;20057;-77
2021/05/15 09:39:11;;;;;;;3.22;1.50;;;;;;;;;;4990620;28;20036;-77
2021/05/15 09:41:48;;;;;;;3.45;1.40;;;;;;;;;;5022913;28;20065;-79
2021/05/15 09:44:27;;;;;;;3.38;1.30;;;;;;;;;;5018826;28;20030;-80
2021/05/15 09:46:52;;;;;;;3.72;1.20;;;;;;;;;;5018334;28;20083;-79
2021/05/15 09:49:22;;;;;;;2.27;1.10;;;;;;;;;;5000599;28;20025;-78
2021/05/15 09:52:00;;;;;;;2.22;0.80;;;;;;;;;;4999888;28;20267;-78
2021/05/15 09:54:29;;;;;;;1.15;0.52;;;;;;;;;;4999591;28;20171;-79
2021/05/15 09:56:59;;;;;;;1.13;0.65;;;;;;;;;;5000803;28;20040;-79
2021/05/15 09:59:34;;;;;;;1.10;0.60;;;;;;;;;;4998619;28;20034;-79
2021/05/15 10:02:10;;;;;;;1.63;0.80;;;;;;;;;;5018900;28;20588;-79
2021/05/15 10:04:35;;;;;;;1.48;0.70;;;;;;;;;;4998064;28;20243;-79
2021/05/15 10:07:01;;;;;;;1.77;0.90;;;;;;;;;;4979579;28;20481;-77
2021/05/15 10:09:33;;;;;;;2.00;0.80;;;;;;;;;;4985648;28;20459;-79
2021/05/15 10:12:00;;;;;;;2.03;0.68;;;;;;;;;;4996957;28;20041;-80
2021/05/15 10:14:25;;;;;;;1.95;0.60;;;;;;;;;;4993643;28;20487;-79
2021/05/15 10:16:51;;;;;;;2.63;0.60;;;;;;;;;;4969868;28;20041;-80
2021/05/15 10:19:16;;;;;;;2.30;0.63;;;;;;;;;;4984119;28;20033;-79
2021/05/15 10:21:42;;;;;;;2.37;0.70;;;;;;;;;;5008780;28;20064;-79
2021/05/15 10:24:18;;;;;;;2.25;0.70;;;;;;;;;;4985051;28;20096;-79
2021/05/15 10:26:44;;;;;;;2.25;0.70;;;;;;;;;;5020303;28;20029;-79
2021/05/15 10:29:09;;;;;;;1.93;0.67;;;;;;;;;;4975632;28;20029;-79
2021/05/15 10:31:39;;;;;;;2.17;0.70;;;;;;;;;;5019741;28;20025;-79
2021/05/15 10:34:05;;;;;;;2.10;0.68;;;;;;;;;;5004098;28;20021;-79
2021/05/15 10:36:30;;;;;;;2.20;0.60;;;;;;;;;;5000057;28;20080;-79
2021/05/15 10:38:56;;;;;;;1.50;0.68;;;;;;;;;;4992324;28;20045;-79
2021/05/15 10:41:26;;;;;;;1.47;0.80;;;;;;;;;;5037535;28;20456;-79
2021/05/15 10:43:51;;;;;;;1.25;0.60;;;;;;;;;;4987813;28;20052;-79
2021/05/15 10:46:28;;;;;;;1.50;0.70;;;;;;;;;;4986611;28;20482;-79
2021/05/15 10:49:07;;;;;;;1.47;0.73;;;;;;;;;;5003953;28;20026;-80
2021/05/15 10:51:37;;;;;;;1.15;0.65;;;;;;;;;;5003981;28;20492;-79
2021/05/15 10:56:39;;;;;;;1.42;0.70;;;;;;;;;;5041652;28;20046;-75
2021/05/15 10:59:09;;;;;;;1.63;0.80;;;;;;;;;;5015727;28;20455;-75
2021/05/15 11:01:52;;;;;;;1.70;0.85;;;;;;;;;;4999594;28;20021;-75
2021/05/15 11:04:35;;;;;;;2.10;0.77;;;;;;;;;;5016470;28;20365;-75
2021/05/15 11:07:03;;;;;;;1.90;0.88;;;;;;;;;;5033005;28;20087;-75
2021/05/15 11:09:29;;;;;;;1.15;0.57;;;;;;;;;;5033531;28;20484;-75
2021/05/15 11:12:03;;;;;;;1.13;0.70;;;;;;;;;;5000127;28;20032;-76
2021/05/15 11:14:36;;;;;;;1.58;0.70;;;;;;;;;;4996255;28;20041;-75
2021/05/15 11:17:06;;;;;;;2.30;0.70;;;;;;;;;;4999291;28;20017;-75
2021/05/15 11:19:31;;;;;;;2.30;0.77;;;;;;;;;;5000034;28;20033;-75
2021/05/15 11:21:57;;;;;;;1.20;0.70;;;;;;;;;;5033506;28;20033;-76
2021/05/15 11:24:29;;;;;;;1.80;0.87;;;;;;;;;;5033094;28;20491;-76
2021/05/15 11:26:56;;;;;;;1.58;0.80;;;;;;;;;;4999396;28;20017;-75
2021/05/15 11:29:34;;;;;;;1.63;0.73;;;;;;;;;;5016062;28;20097;-75
2021/05/15 11:32:10;;;;;;;1.55;0.63;;;;;;;;;;5016185;28;20374;-75
2021/05/15 11:34:36;;;;;;;1.52;0.73;;;;;;;;;;5015179;28;20061;-75
2021/05/15 11:37:01;;;;;;;1.80;0.80;;;;;;;;;;4979781;28;20519;-75
2021/05/15 11:39:27;;;;;;;2.67;0.80;;;;;;;;;;4998879;28;20063;-75
2021/05/15 11:42:28;;;;;;;1.33;0.63;;;;;;;;;;4999131;28;20029;-75
2021/05/15 11:44:54;;;;;;;1.55;0.77;;;;;;;;;;4994284;28;20041;-75
2021/05/15 11:47:22;;;;;;;1.13;0.60;;;;;;;;;;4999486;28;20450;-75
2021/05/15 11:49:54;;;;;;;2.13;0.80;;;;;;;;;;5015094;28;20036;-75
2021/05/15 11:52:19;;;;;;;3.22;0.73;;;;;;;;;;5032027;28;20033;-75
2021/05/15 11:54:47;;;;;;;1.43;0.63;;;;;;;;;;5015399;28;20174;-75
2021/05/15 11:57:12;;;;;;;1.73;0.52;;;;;;;;;;5032860;28;20021;-75
2021/05/15 11:59:38;;;;;;;2.00;0.60;;;;;;;;;;5032766;28;20067;-75
2021/05/15 12:02:03;;;;;;;0.90;0.50;;;;;;;;;;4999130;28;20112;-75
2021/05/15 12:04:31;;;;;;;1.83;0.70;;;;;;;;;;5015080;28;20028;-75
2021/05/15 12:07:04;;;;;;;1.58;0.70;;;;;;;;;;5015717;28;20017;-75
2021/05/15 12:09:30;;;;;;;1.65;0.80;;;;;;;;;;5015266;28;20091;-74
2021/05/15 12:12:06;;;;;;;1.05;0.52;;;;;;;;;;4982252;28;20481;-75
2021/05/15 12:14:32;;;;;;;1.70;0.70;;;;;;;;;;5016190;28;20033;-75
2021/05/15 12:17:07;;;;;;;1.00;0.53;;;;;;;;;;5014888;28;20053;-75
2021/05/15 12:19:33;;;;;;;1.42;0.60;;;;;;;;;;5015119;28;20068;-75
2021/05/15 12:22:00;;;;;;;1.50;0.53;;;;;;;;;;4997226;28;20022;-74
2021/05/15 12:24:38;;;;;;;1.27;0.63;;;;;;;;;;5011210;28;20034;-75
2021/05/15 12:27:12;;;;;;;1.50;0.60;;;;;;;;;;5003304;28;20074;-75
2021/05/15 12:29:38;;;;;;;1.23;0.80;;;;;;;;;;5015264;28;20107;-75
2021/05/15 12:32:04;;;;;;;1.10;0.60;;;;;;;;;;5031632;28;20030;-75
2021/05/15 12:34:29;;;;;;;1.75;0.65;;;;;;;;;;5015421;28;20052;-75
2021/05/15 12:36:55;;;;;;;1.10;0.70;;;;;;;;;;5032970;28;20037;-75
2021/05/15 12:39:20;;;;;;;1.00;0.60;;;;;;;;;;5019078;28;20500;-75
2021/05/15 12:41:46;;;;;;;1.00;0.67;;;;;;;;;;5036724;28;20492;-75
2021/05/15 12:44:17;;;;;;;1.13;0.53;;;;;;;;;;5036697;28;20056;-75
2021/05/15 12:46:45;;;;;;;1.73;0.63;;;;;;;;;;5019826;28;20491;-75
2021/05/15 12:49:15;;;;;;;1.45;0.60;;;;;;;;;;5019243;28;20029;-75
2021/05/15 12:51:41;;;;;;;1.33;0.70;;;;;;;;;;5018858;28;20026;-75
2021/05/15 12:54:13;;;;;;;1.00;0.60;;;;;;;;;;5036510;28;20026;-75
2021/05/15 12:56:39;;;;;;;1.48;0.63;;;;;;;;;;5035142;28;20536;-75
2021/05/15 12:59:04;;;;;;;0.83;0.50;;;;;;;;;;5035466;28;20108;-75
2021/05/15 13:01:30;;;;;;;1.37;0.67;;;;;;;;;;5018560;28;20029;-75
2021/05/15 13:03:55;;;;;;;1.93;0.70;;;;;;;;;;5018761;28;20414;-75
2021/05/15 13:06:22;;;;;;;0.60;0.50;;;;;;;;;;5035158;28;20495;-75
2021/05/15 13:09:01;;;;;;;1.20;0.60;;;;;;;;;;5018955;28;20111;-75
2021/05/15 13:11:26;;;;;;;1.25;0.60;;;;;;;;;;5035064;28;20032;-75
2021/05/15 13:13:53;;;;;;;0.80;0.50;;;;;;;;;;5018544;28;20033;-75
2021/05/15 13:16:19;;;;;;;0.70;0.55;;;;;;;;;;5018520;28;20284;-75
2021/05/15 13:18:45;;;;;;;1.00;0.50;;;;;;;;;;5034949;28;20484;-75
2021/05/15 13:21:10;;;;;;;1.30;0.50;;;;;;;;;;5018567;28;20101;-75
2021/05/15 13:23:35;;;;;;;1.03;0.43;;;;;;;;;;5034875;28;20026;-75
2021/05/15 13:26:01;;;;;;;1.27;0.60;;;;;;;;;;5018476;28;20044;-75
2021/05/15 13:28:26;;;;;;;1.73;0.40;;;;;;;;;;5018214;28;20507;-75
2021/05/15 13:30:52;;;;;;;1.20;0.53;;;;;;;;;;5018250;28;20546;-75
2021/05/15 13:33:17;;;;;;;2.00;0.67;;;;;;;;;;5018278;28;20032;-75
2021/05/15 13:35:43;;;;;;;2.27;0.53;;;;;;;;;;5017921;28;20022;-75
2021/05/15 13:38:08;;;;;;;1.80;0.50;;;;;;;;;;5018208;28;20465;-75
2021/05/15 13:40:34;;;;;;;1.10;0.60;;;;;;;;;;5018151;28;20021;-75
2021/05/15 13:42:59;;;;;;;1.10;0.60;;;;;;;;;;5034531;28;20543;-75
2021/05/15 13:45:24;;;;;;;1.57;0.70;;;;;;;;;;5034510;28;20022;-75
2021/05/15 13:47:51;;;;;;;0.87;0.53;;;;;;;;;;5001291;28;20105;-75
2021/05/15 13:50:17;;;;;;;;;;;;;;;;;;5018470;28;20045;-74
2021/05/15 13:52:42;;;;;;;1.48;0.55;;;;;;;;;;5017892;28;20368;-74
2021/05/15 13:55:08;;;;;;;2.80;0.60;;;;;;;;;;5017631;28;20037;-75
2021/05/15 13:57:33;;;;;;;0.88;0.50;;;;;;;;;;5017667;28;20033;-75
2021/05/15 13:59:59;;;;;;;1.43;0.60;;;;;;;;;;5034138;28;20061;-75
2021/05/15 14:02:24;;;;;;;1.53;0.53;;;;;;;;;;5035186;28;20064;-75
2021/05/15 14:04:49;;;;;;;0.70;0.40;;;;;;;;;;5034252;28;20057;-75
2021/05/15 14:07:15;;;;;;;1.13;0.60;;;;;;;;;;5001291;28;20025;-75
2021/05/15 14:09:40;;;;;;;0.90;0.50;;;;;;;;;;5017525;28;20053;-75
2021/05/15 14:12:06;;;;;;;1.33;0.60;;;;;;;;;;5017381;28;20086;-75
2021/05/15 14:14:31;;;;;;;1.00;0.50;;;;;;;;;;5035065;28;20028;-75
2021/05/15 14:16:56;;;;;;;0.80;0.50;;;;;;;;;;5033894;28;20116;-75
2021/05/15 14:19:22;;;;;;;1.20;0.60;;;;;;;;;;5017745;28;20059;-75
2021/05/15 14:21:47;;;;;;;1.47;0.60;;;;;;;;;;5034937;28;20435;-75
2021/05/15 14:24:12;;;;;;;0.90;0.40;;;;;;;;;;5034880;28;20457;-75
2021/05/15 14:26:37;;;;;;;0.90;0.50;;;;;;;;;;5017191;28;20045;-75
2021/05/15 14:29:03;;;;;;;0.83;0.50;;;;;;;;;;5017211;28;20104;-75
2021/05/15 14:31:28;;;;;;;1.27;0.60;;;;;;;;;;5033564;28;20024;-75
2021/05/15 14:33:54;;;;;;;1.20;0.50;;;;;;;;;;5017062;28;20147;-75
2021/05/15 14:36:19;;;;;;;1.40;0.60;;;;;;;;;;5016905;28;20120;-75
2021/05/15 14:38:44;;;;;;;0.87;0.50;;;;;;;;;;5000547;28;20044;-75
2021/05/15 14:41:11;;;;;;;0.97;0.53;;;;;;;;;;5017063;28;20048;-75
2021/05/15 14:43:36;;;;;;;;;;;;;;;;;;5033785;28;20036;-75
2021/05/15 14:46:02;;;;;;;1.50;0.60;;;;;;;;;;5016820;28;19928;-75